Kanawha Head, West Virginia
Current Conditions -  °F | °C
As of 12:35 AM on Tuesday 27 Jan 2015 (Local Time) from KW22 Reporting Station
Light Snow Light Snow  
Wind Chill: 23°   Ceiling: 300
Heat Index: 23°   Visibility: 3mi
Dew Point: 23°   Wind: 0mph
Humidity: 100%   Direction: NA
Pressure: 29.82"   Gusts: 12mph
Location:  38.77°N, 80.35°W
Report Text: KW22 270535Z AUTO 00000G10KT 3SM -SN OVC003 M05/M05 A2982 RMK AO2
Loading
Personal Weather Stations






























Interactive Weather Map New forecast layout! Learn more

10-Day Weather Forecast

Advertisements
Track Severe Weather on mobile